sensor_id;sensor_type;location;lat;lon;timestamp;P1;durP1;ratioP1;P2;durP2;ratioP2
38034;SDS011;23841;48.524;1.342;2023-11-21T00:00:33;2.72;;;1.02;;
38034;SDS011;23841;48.524;1.342;2023-11-21T00:02:59;2.63;;;1.10;;
38034;SDS011;23841;48.524;1.342;2023-11-21T00:05:24;3.60;;;1.20;;
38034;SDS011;23841;48.524;1.342;2023-11-21T00:07:50;4.22;;;1.10;;
38034;SDS011;23841;48.524;1.342;2023-11-21T00:10:16;3.15;;;0.90;;
38034;SDS011;23841;48.524;1.342;2023-11-21T00:12:41;2.70;;;0.90;;
38034;SDS011;23841;48.524;1.342;2023-11-21T00:15:07;3.63;;;1.00;;
38034;SDS011;23841;48.524;1.342;2023-11-21T00:17:36;4.55;;;1.10;;
38034;SDS011;23841;48.524;1.342;2023-11-21T00:20:03;2.55;;;1.02;;
38034;SDS011;23841;48.524;1.342;2023-11-21T00:22:32;2.30;;;0.85;;
38034;SDS011;23841;48.524;1.342;2023-11-21T00:25:01;5.57;;;1.38;;
38034;SDS011;23841;48.524;1.342;2023-11-21T00:27:28;3.35;;;0.90;;
38034;SDS011;23841;48.524;1.342;2023-11-21T00:29:54;2.63;;;1.00;;
38034;SDS011;23841;48.524;1.342;2023-11-21T00:32:19;5.43;;;1.33;;
38034;SDS011;23841;48.524;1.342;2023-11-21T00:34:45;4.18;;;1.00;;
38034;SDS011;23841;48.524;1.342;2023-11-21T00:37:10;3.00;;;1.00;;
38034;SDS011;23841;48.524;1.342;2023-11-21T00:39:36;6.28;;;1.35;;
38034;SDS011;23841;48.524;1.342;2023-11-21T00:42:02;3.55;;;1.10;;
38034;SDS011;23841;48.524;1.342;2023-11-21T00:44:29;2.92;;;1.00;;
38034;SDS011;23841;48.524;1.342;2023-11-21T00:46:55;3.72;;;1.20;;
38034;SDS011;23841;48.524;1.342;2023-11-21T00:49:20;3.30;;;0.90;;
38034;SDS011;23841;48.524;1.342;2023-11-21T00:51:46;3.03;;;1.02;;
38034;SDS011;23841;48.524;1.342;2023-11-21T00:54:11;2.53;;;0.98;;
38034;SDS011;23841;48.524;1.342;2023-11-21T00:56:37;2.28;;;1.13;;
38034;SDS011;23841;48.524;1.342;2023-11-21T00:59:02;4.05;;;1.50;;
38034;SDS011;23841;48.524;1.342;2023-11-21T01:01:30;3.65;;;1.10;;
38034;SDS011;23841;48.524;1.342;2023-11-21T01:03:55;4.25;;;1.08;;
38034;SDS011;23841;48.524;1.342;2023-11-21T01:06:20;3.10;;;1.00;;
38034;SDS011;23841;48.524;1.342;2023-11-21T01:08:46;6.22;;;1.35;;
38034;SDS011;23841;48.524;1.342;2023-11-21T01:11:11;4.70;;;1.55;;
38034;SDS011;23841;48.524;1.342;2023-11-21T01:13:38;4.72;;;1.00;;
38034;SDS011;23841;48.524;1.342;2023-11-21T01:16:04;4.30;;;1.30;;
38034;SDS011;23841;48.524;1.342;2023-11-21T01:18:31;6.13;;;1.23;;
38034;SDS011;23841;48.524;1.342;2023-11-21T01:20:57;4.32;;;1.02;;
38034;SDS011;23841;48.524;1.342;2023-11-21T01:23:23;3.75;;;0.90;;
38034;SDS011;23841;48.524;1.342;2023-11-21T01:25:48;2.78;;;1.20;;
38034;SDS011;23841;48.524;1.342;2023-11-21T01:28:14;5.03;;;1.17;;
38034;SDS011;23841;48.524;1.342;2023-11-21T01:30:39;3.00;;;0.98;;
38034;SDS011;23841;48.524;1.342;2023-11-21T01:33:05;3.55;;;1.20;;
38034;SDS011;23841;48.524;1.342;2023-11-21T01:35:30;5.07;;;1.17;;
38034;SDS011;23841;48.524;1.342;2023-11-21T01:37:56;4.28;;;1.20;;
38034;SDS011;23841;48.524;1.342;2023-11-21T01:40:21;3.45;;;1.08;;
38034;SDS011;23841;48.524;1.342;2023-11-21T01:42:47;3.67;;;1.30;;
38034;SDS011;23841;48.524;1.342;2023-11-21T01:45:13;3.20;;;1.33;;
38034;SDS011;23841;48.524;1.342;2023-11-21T01:47:40;3.08;;;0.95;;
38034;SDS011;23841;48.524;1.342;2023-11-21T01:50:10;4.47;;;1.20;;
38034;SDS011;23841;48.524;1.342;2023-11-21T01:52:42;2.65;;;1.05;;
38034;SDS011;23841;48.524;1.342;2023-11-21T01:55:12;3.30;;;0.80;;
38034;SDS011;23841;48.524;1.342;2023-11-21T01:57:41;6.45;;;1.38;;
38034;SDS011;23841;48.524;1.342;2023-11-21T02:00:07;3.33;;;0.90;;
38034;SDS011;23841;48.524;1.342;2023-11-21T02:02:44;3.03;;;0.98;;
38034;SDS011;23841;48.524;1.342;2023-11-21T02:05:13;3.85;;;1.20;;
38034;SDS011;23841;48.524;1.342;2023-11-21T02:07:41;3.15;;;1.20;;
38034;SDS011;23841;48.524;1.342;2023-11-21T02:10:08;2.08;;;0.90;;
38034;SDS011;23841;48.524;1.342;2023-11-21T02:12:34;2.15;;;1.05;;
38034;SDS011;23841;48.524;1.342;2023-11-21T02:15:03;5.15;;;1.45;;
38034;SDS011;23841;48.524;1.342;2023-11-21T02:17:34;2.65;;;1.02;;
38034;SDS011;23841;48.524;1.342;2023-11-21T02:20:00;3.03;;;1.10;;
38034;SDS011;23841;48.524;1.342;2023-11-21T02:22:30;4.38;;;1.20;;
38034;SDS011;23841;48.524;1.342;2023-11-21T02:25:00;3.40;;;1.15;;
38034;SDS011;23841;48.524;1.342;2023-11-21T02:27:26;5.40;;;1.60;;
38034;SDS011;23841;48.524;1.342;2023-11-21T02:29:52;3.50;;;1.10;;
38034;SDS011;23841;48.524;1.342;2023-11-21T02:32:17;3.67;;;0.93;;
38034;SDS011;23841;48.524;1.342;2023-11-21T02:34:44;4.90;;;1.20;;
38034;SDS011;23841;48.524;1.342;2023-11-21T02:37:09;2.53;;;0.82;;
38034;SDS011;23841;48.524;1.342;2023-11-21T02:39:35;3.58;;;1.23;;
38034;SDS011;23841;48.524;1.342;2023-11-21T02:42:00;2.85;;;0.90;;
38034;SDS011;23841;48.524;1.342;2023-11-21T02:44:26;3.00;;;0.98;;
38034;SDS011;23841;48.524;1.342;2023-11-21T02:46:51;2.80;;;0.90;;
38034;SDS011;23841;48.524;1.342;2023-11-21T02:49:17;2.38;;;0.98;;
38034;SDS011;23841;48.524;1.342;2023-11-21T02:51:42;5.93;;;1.63;;
38034;SDS011;23841;48.524;1.342;2023-11-21T02:54:08;3.28;;;1.00;;
38034;SDS011;23841;48.524;1.342;2023-11-21T02:56:34;2.22;;;1.00;;
38034;SDS011;23841;48.524;1.342;2023-11-21T02:58:59;3.92;;;0.90;;
38034;SDS011;23841;48.524;1.342;2023-11-21T03:01:25;6.20;;;1.35;;
38034;SDS011;23841;48.524;1.342;2023-11-21T03:03:52;4.90;;;1.20;;
38034;SDS011;23841;48.524;1.342;2023-11-21T03:06:21;2.97;;;0.98;;
38034;SDS011;23841;48.524;1.342;2023-11-21T03:08:47;3.83;;;0.90;;
38034;SDS011;23841;48.524;1.342;2023-11-21T03:11:13;2.70;;;1.00;;
38034;SDS011;23841;48.524;1.342;2023-11-21T03:13:41;3.50;;;0.82;;
38034;SDS011;23841;48.524;1.342;2023-11-21T03:16:08;2.42;;;1.00;;
38034;SDS011;23841;48.524;1.342;2023-11-21T03:18:34;5.20;;;1.10;;
38034;SDS011;23841;48.524;1.342;2023-11-21T03:20:59;3.30;;;1.23;;
38034;SDS011;23841;48.524;1.342;2023-11-21T03:23:25;5.50;;;1.23;;
38034;SDS011;23841;48.524;1.342;2023-11-21T03:25:50;5.40;;;2.55;;
38034;SDS011;23841;48.524;1.342;2023-11-21T03:28:15;4.22;;;1.67;;
38034;SDS011;23841;48.524;1.342;2023-11-21T03:30:41;3.13;;;1.13;;
38034;SDS011;23841;48.524;1.342;2023-11-21T03:33:06;2.65;;;0.93;;
38034;SDS011;23841;48.524;1.342;2023-11-21T03:35:32;2.05;;;0.88;;
38034;SDS011;23841;48.524;1.342;2023-11-21T03:37:58;2.13;;;1.00;;
38034;SDS011;23841;48.524;1.342;2023-11-21T03:40:23;3.10;;;0.90;;
38034;SDS011;23841;48.524;1.342;2023-11-21T03:42:49;3.55;;;1.15;;
38034;SDS011;23841;48.524;1.342;2023-11-21T03:45:14;2.80;;;1.17;;
38034;SDS011;23841;48.524;1.342;2023-11-21T03:47:43;4.40;;;1.45;;
38034;SDS011;23841;48.524;1.342;2023-11-21T03:50:08;2.92;;;1.00;;
38034;SDS011;23841;48.524;1.342;2023-11-21T03:52:34;2.22;;;1.10;;
38034;SDS011;23841;48.524;1.342;2023-11-21T03:55:02;3.65;;;1.10;;
38034;SDS011;23841;48.524;1.342;2023-11-21T03:57:29;1.83;;;0.82;;
38034;SDS011;23841;48.524;1.342;2023-11-21T03:59:54;3.83;;;0.90;;
38034;SDS011;23841;48.524;1.342;2023-11-21T04:02:19;5.68;;;1.15;;
38034;SDS011;23841;48.524;1.342;2023-11-21T04:04:45;3.28;;;1.42;;
38034;SDS011;23841;48.524;1.342;2023-11-21T04:07:10;3.88;;;1.30;;
38034;SDS011;23841;48.524;1.342;2023-11-21T04:09:38;1.98;;;1.00;;
38034;SDS011;23841;48.524;1.342;2023-11-21T04:12:04;2.40;;;0.90;;
38034;SDS011;23841;48.524;1.342;2023-11-21T04:14:30;4.40;;;1.55;;
38034;SDS011;23841;48.524;1.342;2023-11-21T04:16:56;1.60;;;0.90;;
38034;SDS011;23841;48.524;1.342;2023-11-21T04:19:22;2.40;;;0.93;;
38034;SDS011;23841;48.524;1.342;2023-11-21T04:21:47;1.73;;;0.90;;
38034;SDS011;23841;48.524;1.342;2023-11-21T04:24:13;2.88;;;1.08;;
38034;SDS011;23841;48.524;1.342;2023-11-21T04:26:38;1.92;;;0.75;;
38034;SDS011;23841;48.524;1.342;2023-11-21T04:29:03;1.70;;;0.80;;
38034;SDS011;23841;48.524;1.342;2023-11-21T04:31:29;2.22;;;1.08;;
38034;SDS011;23841;48.524;1.342;2023-11-21T04:33:55;1.63;;;1.10;;
38034;SDS011;23841;48.524;1.342;2023-11-21T04:36:21;1.83;;;1.00;;
38034;SDS011;23841;48.524;1.342;2023-11-21T04:38:46;3.40;;;1.00;;
38034;SDS011;23841;48.524;1.342;2023-11-21T04:41:12;1.45;;;0.88;;
38034;SDS011;23841;48.524;1.342;2023-11-21T04:43:37;2.45;;;0.98;;
38034;SDS011;23841;48.524;1.342;2023-11-21T04:46:02;2.85;;;1.10;;
38034;SDS011;23841;48.524;1.342;2023-11-21T04:48:28;2.92;;;0.82;;
38034;SDS011;23841;48.524;1.342;2023-11-21T04:50:53;2.60;;;1.08;;
38034;SDS011;23841;48.524;1.342;2023-11-21T04:53:19;2.38;;;0.90;;
38034;SDS011;23841;48.524;1.342;2023-11-21T04:55:45;1.63;;;0.80;;
38034;SDS011;23841;48.524;1.342;2023-11-21T04:58:11;1.38;;;0.77;;
38034;SDS011;23841;48.524;1.342;2023-11-21T05:00:37;1.95;;;1.25;;
38034;SDS011;23841;48.524;1.342;2023-11-21T05:03:03;2.75;;;0.93;;
38034;SDS011;23841;48.524;1.342;2023-11-21T05:05:29;1.52;;;0.80;;
38034;SDS011;23841;48.524;1.342;2023-11-21T05:07:55;2.08;;;1.00;;
38034;SDS011;23841;48.524;1.342;2023-11-21T05:10:20;4.85;;;1.30;;
38034;SDS011;23841;48.524;1.342;2023-11-21T05:12:47;2.63;;;0.95;;
38034;SDS011;23841;48.524;1.342;2023-11-21T05:15:15;2.78;;;1.05;;
38034;SDS011;23841;48.524;1.342;2023-11-21T05:17:44;3.10;;;0.90;;
38034;SDS011;23841;48.524;1.342;2023-11-21T05:20:11;2.13;;;1.00;;
38034;SDS011;23841;48.524;1.342;2023-11-21T05:22:38;2.85;;;1.17;;
38034;SDS011;23841;48.524;1.342;2023-11-21T05:25:04;2.92;;;0.93;;
38034;SDS011;23841;48.524;1.342;2023-11-21T05:27:32;2.28;;;1.10;;
38034;SDS011;23841;48.524;1.342;2023-11-21T05:29:57;5.53;;;1.00;;
38034;SDS011;23841;48.524;1.342;2023-11-21T05:32:25;4.50;;;1.25;;
38034;SDS011;23841;48.524;1.342;2023-11-21T05:34:52;4.25;;;1.20;;
38034;SDS011;23841;48.524;1.342;2023-11-21T05:37:17;3.13;;;1.33;;
38034;SDS011;23841;48.524;1.342;2023-11-21T05:39:43;4.45;;;1.67;;
38034;SDS011;23841;48.524;1.342;2023-11-21T05:42:08;2.25;;;1.13;;
38034;SDS011;23841;48.524;1.342;2023-11-21T05:44:36;3.25;;;1.38;;
38034;SDS011;23841;48.524;1.342;2023-11-21T05:47:02;2.55;;;1.13;;
38034;SDS011;23841;48.524;1.342;2023-11-21T05:49:28;5.50;;;1.08;;
38034;SDS011;23841;48.524;1.342;2023-11-21T05:51:54;2.78;;;1.40;;
38034;SDS011;23841;48.524;1.342;2023-11-21T05:54:21;1.88;;;1.00;;
38034;SDS011;23841;48.524;1.342;2023-11-21T05:56:47;5.57;;;1.30;;
38034;SDS011;23841;48.524;1.342;2023-11-21T05:59:12;2.50;;;1.35;;
38034;SDS011;23841;48.524;1.342;2023-11-21T06:01:38;4.03;;;1.80;;
38034;SDS011;23841;48.524;1.342;2023-11-21T06:04:04;6.88;;;1.50;;
38034;SDS011;23841;48.524;1.342;2023-11-21T06:06:30;2.75;;;1.42;;
38034;SDS011;23841;48.524;1.342;2023-11-21T06:08:56;4.07;;;1.63;;
38034;SDS011;23841;48.524;1.342;2023-11-21T06:11:22;4.45;;;1.50;;
38034;SDS011;23841;48.524;1.342;2023-11-21T06:13:48;3.42;;;1.10;;
38034;SDS011;23841;48.524;1.342;2023-11-21T06:16:14;3.38;;;1.50;;
38034;SDS011;23841;48.524;1.342;2023-11-21T06:18:42;4.10;;;2.03;;
38034;SDS011;23841;48.524;1.342;2023-11-21T06:21:11;2.38;;;1.40;;
38034;SDS011;23841;48.524;1.342;2023-11-21T06:23:36;3.22;;;1.40;;
38034;SDS011;23841;48.524;1.342;2023-11-21T06:26:02;3.85;;;1.38;;
38034;SDS011;23841;48.524;1.342;2023-11-21T06:28:29;3.83;;;1.25;;
38034;SDS011;23841;48.524;1.342;2023-11-21T06:30:55;4.78;;;1.40;;
38034;SDS011;23841;48.524;1.342;2023-11-21T06:33:21;5.80;;;1.58;;
38034;SDS011;23841;48.524;1.342;2023-11-21T06:35:46;2.92;;;1.30;;
38034;SDS011;23841;48.524;1.342;2023-11-21T06:38:12;3.80;;;1.38;;
38034;SDS011;23841;48.524;1.342;2023-11-21T06:40:37;3.95;;;1.02;;
38034;SDS011;23841;48.524;1.342;2023-11-21T06:43:03;5.80;;;2.13;;
38034;SDS011;23841;48.524;1.342;2023-11-21T06:45:29;5.45;;;1.27;;
38034;SDS011;23841;48.524;1.342;2023-11-21T06:47:55;4.95;;;1.27;;
38034;SDS011;23841;48.524;1.342;2023-11-21T06:50:20;3.28;;;1.50;;
38034;SDS011;23841;48.524;1.342;2023-11-21T06:52:46;3.67;;;1.50;;
38034;SDS011;23841;48.524;1.342;2023-11-21T06:55:11;4.45;;;1.70;;
38034;SDS011;23841;48.524;1.342;2023-11-21T06:57:37;2.63;;;1.20;;
38034;SDS011;23841;48.524;1.342;2023-11-21T07:00:03;3.70;;;1.58;;
38034;SDS011;23841;48.524;1.342;2023-11-21T07:02:29;5.13;;;1.48;;
38034;SDS011;23841;48.524;1.342;2023-11-21T07:04:55;4.43;;;1.50;;
38034;SDS011;23841;48.524;1.342;2023-11-21T07:07:20;6.63;;;1.65;;
38034;SDS011;23841;48.524;1.342;2023-11-21T07:09:45;3.88;;;1.50;;
38034;SDS011;23841;48.524;1.342;2023-11-21T07:12:11;4.18;;;1.80;;
38034;SDS011;23841;48.524;1.342;2023-11-21T07:14:37;5.25;;;1.85;;
38034;SDS011;23841;48.524;1.342;2023-11-21T07:17:04;4.78;;;1.98;;
38034;SDS011;23841;48.524;1.342;2023-11-21T07:19:30;4.25;;;1.90;;
38034;SDS011;23841;48.524;1.342;2023-11-21T07:21:55;3.08;;;1.60;;
38034;SDS011;23841;48.524;1.342;2023-11-21T07:24:21;4.45;;;1.90;;
38034;SDS011;23841;48.524;1.342;2023-11-21T07:26:47;4.57;;;2.33;;
38034;SDS011;23841;48.524;1.342;2023-11-21T07:29:13;4.38;;;2.05;;
38034;SDS011;23841;48.524;1.342;2023-11-21T07:31:38;6.20;;;2.10;;
38034;SDS011;23841;48.524;1.342;2023-11-21T07:34:04;3.03;;;1.90;;
38034;SDS011;23841;48.524;1.342;2023-11-21T07:36:30;8.05;;;2.20;;
38034;SDS011;23841;48.524;1.342;2023-11-21T07:38:56;3.13;;;2.22;;
38034;SDS011;23841;48.524;1.342;2023-11-21T07:41:22;7.30;;;2.42;;
38034;SDS011;23841;48.524;1.342;2023-11-21T07:43:47;4.25;;;2.20;;
38034;SDS011;23841;48.524;1.342;2023-11-21T07:46:13;4.53;;;2.40;;
38034;SDS011;23841;48.524;1.342;2023-11-21T07:48:39;4.32;;;2.10;;
38034;SDS011;23841;48.524;1.342;2023-11-21T07:51:06;6.00;;;2.25;;
38034;SDS011;23841;48.524;1.342;2023-11-21T07:53:34;3.85;;;2.35;;
38034;SDS011;23841;48.524;1.342;2023-11-21T07:56:03;6.50;;;2.28;;
38034;SDS011;23841;48.524;1.342;2023-11-21T07:58:30;4.57;;;2.17;;
38034;SDS011;23841;48.524;1.342;2023-11-21T08:00:56;4.30;;;2.40;;
38034;SDS011;23841;48.524;1.342;2023-11-21T08:03:21;2.95;;;1.70;;
38034;SDS011;23841;48.524;1.342;2023-11-21T08:05:47;3.53;;;2.20;;
38034;SDS011;23841;48.524;1.342;2023-11-21T08:08:12;3.92;;;2.00;;
38034;SDS011;23841;48.524;1.342;2023-11-21T08:10:37;3.40;;;2.20;;
38034;SDS011;23841;48.524;1.342;2023-11-21T08:13:04;4.72;;;2.20;;
38034;SDS011;23841;48.524;1.342;2023-11-21T08:15:29;3.80;;;2.08;;
38034;SDS011;23841;48.524;1.342;2023-11-21T08:17:57;4.32;;;1.92;;
38034;SDS011;23841;48.524;1.342;2023-11-21T08:20:23;3.88;;;1.80;;
38034;SDS011;23841;48.524;1.342;2023-11-21T08:22:50;3.60;;;1.92;;
38034;SDS011;23841;48.524;1.342;2023-11-21T08:25:16;3.22;;;1.73;;
38034;SDS011;23841;48.524;1.342;2023-11-21T08:27:44;3.25;;;1.88;;
38034;SDS011;23841;48.524;1.342;2023-11-21T08:30:10;4.72;;;2.10;;
38034;SDS011;23841;48.524;1.342;2023-11-21T08:32:37;3.58;;;2.10;;
38034;SDS011;23841;48.524;1.342;2023-11-21T08:35:03;3.17;;;1.90;;
38034;SDS011;23841;48.524;1.342;2023-11-21T08:37:30;4.95;;;1.95;;
38034;SDS011;23841;48.524;1.342;2023-11-21T08:39:58;3.65;;;2.15;;
38034;SDS011;23841;48.524;1.342;2023-11-21T08:42:27;2.78;;;1.55;;
38034;SDS011;23841;48.524;1.342;2023-11-21T08:44:55;4.68;;;1.70;;
38034;SDS011;23841;48.524;1.342;2023-11-21T08:47:22;4.28;;;2.15;;
38034;SDS011;23841;48.524;1.342;2023-11-21T08:49:49;4.15;;;2.10;;
38034;SDS011;23841;48.524;1.342;2023-11-21T08:52:17;3.65;;;2.00;;
38034;SDS011;23841;48.524;1.342;2023-11-21T08:54:42;3.53;;;2.10;;
38034;SDS011;23841;48.524;1.342;2023-11-21T08:57:10;3.40;;;1.90;;
38034;SDS011;23841;48.524;1.342;2023-11-21T08:59:35;3.83;;;1.92;;
38034;SDS011;23841;48.524;1.342;2023-11-21T09:02:01;5.13;;;2.33;;
38034;SDS011;23841;48.524;1.342;2023-11-21T09:04:27;2.80;;;1.85;;
38034;SDS011;23841;48.524;1.342;2023-11-21T09:06:53;3.58;;;2.17;;
38034;SDS011;23841;48.524;1.342;2023-11-21T09:09:18;4.40;;;2.30;;
38034;SDS011;23841;48.524;1.342;2023-11-21T09:11:44;3.53;;;2.00;;
38034;SDS011;23841;48.524;1.342;2023-11-21T09:14:11;4.18;;;2.05;;
38034;SDS011;23841;48.524;1.342;2023-11-21T09:16:38;3.13;;;2.08;;
38034;SDS011;23841;48.524;1.342;2023-11-21T09:19:04;3.13;;;2.20;;
38034;SDS011;23841;48.524;1.342;2023-11-21T09:21:30;2.67;;;1.77;;
38034;SDS011;23841;48.524;1.342;2023-11-21T09:23:56;3.22;;;2.13;;
38034;SDS011;23841;48.524;1.342;2023-11-21T09:26:21;4.53;;;1.90;;
38034;SDS011;23841;48.524;1.342;2023-11-21T09:28:46;3.90;;;1.83;;
38034;SDS011;23841;48.524;1.342;2023-11-21T09:31:13;3.17;;;1.73;;
38034;SDS011;23841;48.524;1.342;2023-11-21T09:33:42;3.67;;;1.88;;
38034;SDS011;23841;48.524;1.342;2023-11-21T09:36:12;4.07;;;2.10;;
38034;SDS011;23841;48.524;1.342;2023-11-21T09:38:41;3.33;;;1.77;;
38034;SDS011;23841;48.524;1.342;2023-11-21T09:41:09;4.47;;;1.83;;
38034;SDS011;23841;48.524;1.342;2023-11-21T09:43:42;3.20;;;1.95;;
38034;SDS011;23841;48.524;1.342;2023-11-21T09:46:11;4.85;;;1.80;;
38034;SDS011;23841;48.524;1.342;2023-11-21T09:48:41;4.07;;;1.92;;
38034;SDS011;23841;48.524;1.342;2023-11-21T09:51:09;2.75;;;1.70;;
38034;SDS011;23841;48.524;1.342;2023-11-21T09:53:36;3.13;;;2.13;;
38034;SDS011;23841;48.524;1.342;2023-11-21T09:56:03;3.10;;;2.10;;
38034;SDS011;23841;48.524;1.342;2023-11-21T09:58:29;3.30;;;2.00;;
38034;SDS011;23841;48.524;1.342;2023-11-21T10:00:58;4.38;;;2.00;;
38034;SDS011;23841;48.524;1.342;2023-11-21T10:03:25;3.30;;;1.60;;
38034;SDS011;23841;48.524;1.342;2023-11-21T10:05:51;3.38;;;1.73;;
38034;SDS011;23841;48.524;1.342;2023-11-21T10:08:21;2.70;;;1.40;;
38034;SDS011;23841;48.524;1.342;2023-11-21T10:10:49;3.65;;;2.10;;
38034;SDS011;23841;48.524;1.342;2023-11-21T10:13:18;2.90;;;1.80;;
38034;SDS011;23841;48.524;1.342;2023-11-21T10:15:44;2.55;;;1.58;;
38034;SDS011;23841;48.524;1.342;2023-11-21T10:18:15;3.67;;;1.30;;
38034;SDS011;23841;48.524;1.342;2023-11-21T10:20:41;2.33;;;1.42;;
38034;SDS011;23841;48.524;1.342;2023-11-21T10:23:08;2.63;;;1.58;;
38034;SDS011;23841;48.524;1.342;2023-11-21T10:25:36;2.58;;;1.40;;
38034;SDS011;23841;48.524;1.342;2023-11-21T10:28:02;2.35;;;1.30;;
38034;SDS011;23841;48.524;1.342;2023-11-21T10:30:35;1.70;;;1.17;;
38034;SDS011;23841;48.524;1.342;2023-11-21T10:33:06;3.58;;;1.60;;
38034;SDS011;23841;48.524;1.342;2023-11-21T10:35:42;2.92;;;1.40;;
38034;SDS011;23841;48.524;1.342;2023-11-21T10:38:18;3.00;;;1.33;;
38034;SDS011;23841;48.524;1.342;2023-11-21T10:40:46;2.88;;;1.40;;
38034;SDS011;23841;48.524;1.342;2023-11-21T10:43:12;3.90;;;1.35;;
38034;SDS011;23841;48.524;1.342;2023-11-21T10:45:40;2.65;;;1.48;;
38034;SDS011;23841;48.524;1.342;2023-11-21T10:48:10;2.20;;;1.23;;
38034;SDS011;23841;48.524;1.342;2023-11-21T10:50:42;2.67;;;1.30;;
38034;SDS011;23841;48.524;1.342;2023-11-21T10:53:09;2.55;;;1.17;;
38034;SDS011;23841;48.524;1.342;2023-11-21T10:55:34;1.33;;;0.90;;
38034;SDS011;23841;48.524;1.342;2023-11-21T10:58:00;2.00;;;0.98;;
38034;SDS011;23841;48.524;1.342;2023-11-21T11:00:28;2.22;;;1.02;;
38034;SDS011;23841;48.524;1.342;2023-11-21T11:02:54;1.55;;;0.80;;
38034;SDS011;23841;48.524;1.342;2023-11-21T11:05:21;1.25;;;0.70;;
38034;SDS011;23841;48.524;1.342;2023-11-21T11:08:04;1.10;;;0.70;;
38034;SDS011;23841;48.524;1.342;2023-11-21T11:10:35;1.20;;;0.80;;
38034;SDS011;23841;48.524;1.342;2023-11-21T11:13:01;1.80;;;0.65;;
38034;SDS011;23841;48.524;1.342;2023-11-21T11:15:27;1.55;;;0.80;;
38034;SDS011;23841;48.524;1.342;2023-11-21T11:17:53;1.13;;;0.60;;
38034;SDS011;23841;48.524;1.342;2023-11-21T11:20:23;1.42;;;0.68;;
38034;SDS011;23841;48.524;1.342;2023-11-21T11:28:07;0.80;;;0.60;;
38034;SDS011;23841;48.524;1.342;2023-11-21T11:33:14;4.18;;;0.80;;
38034;SDS011;23841;48.524;1.342;2023-11-21T11:36:10;1.25;;;0.50;;
38034;SDS011;23841;48.524;1.342;2023-11-21T11:38:47;0.73;;;0.50;;
38034;SDS011;23841;48.524;1.342;2023-11-21T11:41:25;3.08;;;0.50;;
38034;SDS011;23841;48.524;1.342;2023-11-21T11:43:54;2.75;;;0.70;;
38034;SDS011;23841;48.524;1.342;2023-11-21T11:46:19;1.30;;;0.70;;
38034;SDS011;23841;48.524;1.342;2023-11-21T11:48:48;1.40;;;0.60;;
38034;SDS011;23841;48.524;1.342;2023-11-21T11:51:28;1.45;;;0.60;;
38034;SDS011;23841;48.524;1.342;2023-11-21T11:53:53;2.03;;;0.68;;
38034;SDS011;23841;48.524;1.342;2023-11-21T11:56:23;2.38;;;0.70;;
38034;SDS011;23841;48.524;1.342;2023-11-21T11:58:54;0.95;;;0.60;;
38034;SDS011;23841;48.524;1.342;2023-11-21T12:01:21;2.08;;;0.47;;
38034;SDS011;23841;48.524;1.342;2023-11-21T12:06:56;1.08;;;0.50;;
38034;SDS011;23841;48.524;1.342;2023-11-21T12:09:25;0.60;;;0.40;;
38034;SDS011;23841;48.524;1.342;2023-11-21T12:11:52;1.27;;;0.43;;
38034;SDS011;23841;48.524;1.342;2023-11-21T12:14:19;1.02;;;0.40;;
38034;SDS011;23841;48.524;1.342;2023-11-21T12:16:45;2.60;;;0.40;;
38034;SDS011;23841;48.524;1.342;2023-11-21T12:19:13;1.13;;;0.47;;
38034;SDS011;23841;48.524;1.342;2023-11-21T12:21:39;1.13;;;0.50;;
38034;SDS011;23841;48.524;1.342;2023-11-21T12:24:09;0.20;;;0.20;;
38034;SDS011;23841;48.524;1.342;2023-11-21T12:26:35;0.85;;;0.50;;
38034;SDS011;23841;48.524;1.342;2023-11-21T12:29:01;0.80;;;0.40;;
38034;SDS011;23841;48.524;1.342;2023-11-21T12:31:29;0.20;;;0.20;;
38034;SDS011;23841;48.524;1.342;2023-11-21T12:33:55;0.88;;;0.30;;
38034;SDS011;23841;48.524;1.342;2023-11-21T12:36:21;0.45;;;0.32;;
38034;SDS011;23841;48.524;1.342;2023-11-21T12:38:47;0.30;;;0.20;;
38034;SDS011;23841;48.524;1.342;2023-11-21T12:41:12;1.02;;;0.40;;
38034;SDS011;23841;48.524;1.342;2023-11-21T12:43:38;1.20;;;0.40;;
38034;SDS011;23841;48.524;1.342;2023-11-21T12:46:11;0.32;;;0.30;;
38034;SDS011;23841;48.524;1.342;2023-11-21T12:48:39;0.55;;;0.30;;
38034;SDS011;23841;48.524;1.342;2023-11-21T12:51:10;1.20;;;0.40;;
38034;SDS011;23841;48.524;1.342;2023-11-21T12:53:43;1.92;;;0.35;;
38034;SDS011;23841;48.524;1.342;2023-11-21T12:56:12;0.47;;;0.30;;
38034;SDS011;23841;48.524;1.342;2023-11-21T12:58:38;1.38;;;0.32;;
38034;SDS011;23841;48.524;1.342;2023-11-21T13:01:05;1.27;;;1.17;;
38034;SDS011;23841;48.524;1.342;2023-11-21T13:03:37;3.05;;;0.43;;
38034;SDS011;23841;48.524;1.342;2023-11-21T13:06:03;0.73;;;0.52;;
38034;SDS011;23841;48.524;1.342;2023-11-21T13:08:30;0.80;;;0.40;;
38034;SDS011;23841;48.524;1.342;2023-11-21T13:10:57;3.28;;;0.60;;
38034;SDS011;23841;48.524;1.342;2023-11-21T13:13:23;0.98;;;0.88;;
38034;SDS011;23841;48.524;1.342;2023-11-21T13:15:51;0.85;;;0.60;;
38034;SDS011;23841;48.524;1.342;2023-11-21T13:18:18;0.73;;;0.40;;
38034;SDS011;23841;48.524;1.342;2023-11-21T13:20:43;1.20;;;0.35;;
38034;SDS011;23841;48.524;1.342;2023-11-21T13:23:10;1.88;;;0.30;;
38034;SDS011;23841;48.524;1.342;2023-11-21T13:25:41;1.45;;;0.60;;
38034;SDS011;23841;48.524;1.342;2023-11-21T13:28:13;0.75;;;0.40;;
38034;SDS011;23841;48.524;1.342;2023-11-21T13:30:43;0.75;;;0.50;;
38034;SDS011;23841;48.524;1.342;2023-11-21T13:33:09;0.55;;;0.45;;
38034;SDS011;23841;48.524;1.342;2023-11-21T13:35:38;1.13;;;0.43;;
38034;SDS011;23841;48.524;1.342;2023-11-21T13:38:29;1.77;;;0.47;;
38034;SDS011;23841;48.524;1.342;2023-11-21T13:40:57;0.68;;;0.40;;
38034;SDS011;23841;48.524;1.342;2023-11-21T13:43:24;0.90;;;0.50;;
38034;SDS011;23841;48.524;1.342;2023-11-21T13:45:50;3.05;;;0.63;;
38034;SDS011;23841;48.524;1.342;2023-11-21T13:48:37;1.42;;;0.40;;
38034;SDS011;23841;48.524;1.342;2023-11-21T13:51:07;0.30;;;0.30;;
38034;SDS011;23841;48.524;1.342;2023-11-21T13:53:45;1.13;;;0.60;;
38034;SDS011;23841;48.524;1.342;2023-11-21T13:56:17;0.75;;;0.40;;
38034;SDS011;23841;48.524;1.342;2023-11-21T13:58:49;0.52;;;0.40;;
38034;SDS011;23841;48.524;1.342;2023-11-21T14:01:19;1.88;;;0.60;;
38034;SDS011;23841;48.524;1.342;2023-11-21T14:03:59;1.67;;;0.50;;
38034;SDS011;23841;48.524;1.342;2023-11-21T14:06:45;0.73;;;0.40;;
38034;SDS011;23841;48.524;1.342;2023-11-21T14:09:15;0.60;;;0.50;;
38034;SDS011;23841;48.524;1.342;2023-11-21T14:11:49;1.33;;;0.70;;
38034;SDS011;23841;48.524;1.342;2023-11-21T14:14:16;1.10;;;0.60;;
38034;SDS011;23841;48.524;1.342;2023-11-21T14:16:43;0.60;;;0.40;;
38034;SDS011;23841;48.524;1.342;2023-11-21T14:19:08;0.57;;;0.35;;
38034;SDS011;23841;48.524;1.342;2023-11-21T14:21:45;0.77;;;0.40;;
38034;SDS011;23841;48.524;1.342;2023-11-21T14:24:12;1.95;;;0.50;;
38034;SDS011;23841;48.524;1.342;2023-11-21T14:26:39;1.20;;;0.50;;
38034;SDS011;23841;48.524;1.342;2023-11-21T14:29:08;0.40;;;0.40;;
38034;SDS011;23841;48.524;1.342;2023-11-21T14:31:37;0.63;;;0.35;;
38034;SDS011;23841;48.524;1.342;2023-11-21T14:34:02;2.22;;;0.60;;
38034;SDS011;23841;48.524;1.342;2023-11-21T14:36:29;0.40;;;0.30;;
38034;SDS011;23841;48.524;1.342;2023-11-21T14:38:54;3.55;;;0.50;;
38034;SDS011;23841;48.524;1.342;2023-11-21T14:41:20;0.75;;;0.35;;
38034;SDS011;23841;48.524;1.342;2023-11-21T14:43:45;2.38;;;0.70;;
38034;SDS011;23841;48.524;1.342;2023-11-21T14:46:14;0.90;;;0.50;;
38034;SDS011;23841;48.524;1.342;2023-11-21T14:48:42;0.90;;;0.43;;
38034;SDS011;23841;48.524;1.342;2023-11-21T14:51:24;0.85;;;0.45;;
38034;SDS011;23841;48.524;1.342;2023-11-21T14:53:57;0.95;;;0.40;;
38034;SDS011;23841;48.524;1.342;2023-11-21T14:56:32;0.85;;;0.47;;
38034;SDS011;23841;48.524;1.342;2023-11-21T14:59:03;1.05;;;0.60;;